sensor_id;sensor_type;location;lat;lon;timestamp;pressure;altitude;pressure_sealevel;temperature;humidity
56504;BME280;48812;51.606;-0.114;2023-04-03T00:02:10;102467.25;;;16.89;58.85
56504;BME280;48812;51.606;-0.114;2023-04-03T00:04:46;102463.72;;;16.87;58.64
56504;BME280;48812;51.606;-0.114;2023-04-03T00:07:20;102469.06;;;16.87;58.43
56504;BME280;48812;51.606;-0.114;2023-04-03T00:09:53;102463.78;;;16.84;57.99
56504;BME280;48812;51.606;-0.114;2023-04-03T00:12:26;102463.78;;;16.84;58.15
56504;BME280;48812;51.606;-0.114;2023-04-03T00:14:59;102462.03;;;16.83;58.27
56504;BME280;48812;51.606;-0.114;2023-04-03T00:23:58;102452.34;;;16.76;58.21
56504;BME280;48812;51.606;-0.114;2023-04-03T00:30:03;102458.59;;;16.75;58.42
56504;BME280;48812;51.606;-0.114;2023-04-03T00:35:39;102445.38;;;16.67;58.30
56504;BME280;48812;51.606;-0.114;2023-04-03T00:38:14;102445.38;;;16.67;58.11
56504;BME280;48812;51.606;-0.114;2023-04-03T00:40:49;102454.25;;;16.68;58.54
56504;BME280;48812;51.606;-0.114;2023-04-03T00:43:24;102463.19;;;16.67;58.30
56504;BME280;48812;51.606;-0.114;2023-04-03T00:45:59;102471.22;;;16.67;58.09
56504;BME280;48812;51.606;-0.114;2023-04-03T00:48:37;102460.56;;;16.64;58.56
56504;BME280;48812;51.606;-0.114;2023-04-03T00:51:16;102449.91;;;16.64;58.16
56504;BME280;48812;51.606;-0.114;2023-04-03T00:53:54;102461.47;;;16.63;57.96
56504;BME280;48812;51.606;-0.114;2023-04-03T00:56:32;102449.06;;;16.60;58.58
56504;BME280;48812;51.606;-0.114;2023-04-03T00:59:12;102455.28;;;16.61;58.24
56504;BME280;48812;51.606;-0.114;2023-04-03T01:01:48;102444.66;;;16.57;58.29
56504;BME280;48812;51.606;-0.114;2023-04-03T01:06:59;102448.22;;;16.56;58.09
56504;BME280;48812;51.606;-0.114;2023-04-03T01:09:34;102437.59;;;16.53;58.02
56504;BME280;48812;51.606;-0.114;2023-04-03T01:14:55;102442.06;;;16.51;58.14
56504;BME280;48812;51.606;-0.114;2023-04-03T01:17:32;102441.22;;;16.49;58.22
56504;BME280;48812;51.606;-0.114;2023-04-03T01:23:39;102442.13;;;16.48;57.60
56504;BME280;48812;51.606;-0.114;2023-04-03T01:26:15;102436.84;;;16.47;57.91
56504;BME280;48812;51.606;-0.114;2023-04-03T01:28:47;102438.59;;;16.46;57.89
56504;BME280;48812;51.606;-0.114;2023-04-03T01:34:27;102438.66;;;16.41;57.89
56504;BME280;48812;51.606;-0.114;2023-04-03T01:37:00;102430.69;;;16.40;57.74
56504;BME280;48812;51.606;-0.114;2023-04-03T01:39:33;102436.03;;;16.40;57.98
56504;BME280;48812;51.606;-0.114;2023-04-03T01:42:05;102433.41;;;16.38;57.56
56504;BME280;48812;51.606;-0.114;2023-04-03T01:44:43;102427.19;;;16.35;58.21
56504;BME280;48812;51.606;-0.114;2023-04-03T02:23:29;102424.84;;;16.15;57.65
56504;BME280;48812;51.606;-0.114;2023-04-03T02:26:09;102427.50;;;16.16;58.17
56504;BME280;48812;51.606;-0.114;2023-04-03T02:28:54;102418.66;;;16.13;57.56
56504;BME280;48812;51.606;-0.114;2023-04-03T02:34:35;102422.19;;;16.13;57.97
56504;BME280;48812;51.606;-0.114;2023-04-03T02:37:37;102417.81;;;16.11;57.72
56504;BME280;48812;51.606;-0.114;2023-04-03T02:40:13;102417.84;;;16.09;57.61
56504;BME280;48812;51.606;-0.114;2023-04-03T02:42:46;102413.38;;;16.07;58.04
56504;BME280;48812;51.606;-0.114;2023-04-03T02:48:36;102408.06;;;16.05;57.76
56504;BME280;48812;51.606;-0.114;2023-04-03T02:54:36;102406.34;;;16.02;58.05
56504;BME280;48812;51.606;-0.114;2023-04-03T03:12:45;102394.03;;;15.91;58.06
56504;BME280;48812;51.606;-0.114;2023-04-03T03:21:33;102389.66;;;15.86;57.85
56504;BME280;48812;51.606;-0.114;2023-04-03T03:33:53;102386.22;;;15.78;57.76
56504;BME280;48812;51.606;-0.114;2023-04-03T03:55:25;102389.94;;;15.68;57.50
56504;BME280;48812;51.606;-0.114;2023-04-03T03:58:01;102376.63;;;15.65;57.55
56504;BME280;48812;51.606;-0.114;2023-04-03T04:00:42;102380.19;;;15.64;57.64
56504;BME280;48812;51.606;-0.114;2023-04-03T04:03:16;102382.88;;;15.62;57.39
56504;BME280;48812;51.606;-0.114;2023-04-03T04:05:51;102386.44;;;15.63;57.82
56504;BME280;48812;51.606;-0.114;2023-04-03T04:12:22;102385.59;;;15.58;57.69
56504;BME280;48812;51.606;-0.114;2023-04-03T04:14:58;102375.88;;;15.55;57.63
56504;BME280;48812;51.606;-0.114;2023-04-03T04:17:36;102383.00;;;15.55;57.70
56504;BME280;48812;51.606;-0.114;2023-04-03T04:20:11;102382.09;;;15.56;57.71
56504;BME280;48812;51.606;-0.114;2023-04-03T04:22:45;102374.16;;;15.51;57.76
56504;BME280;48812;51.606;-0.114;2023-04-03T04:25:18;102377.72;;;15.52;58.00
56504;BME280;48812;51.606;-0.114;2023-04-03T04:27:52;102383.03;;;15.52;57.74
56504;BME280;48812;51.606;-0.114;2023-04-03T04:30:24;102375.97;;;15.47;57.85
56504;BME280;48812;51.606;-0.114;2023-04-03T04:33:00;102375.97;;;15.49;57.71
56504;BME280;48812;51.606;-0.114;2023-04-03T04:35:36;102380.44;;;15.45;57.58
56504;BME280;48812;51.606;-0.114;2023-04-03T04:38:09;102385.78;;;15.45;57.58
56504;BME280;48812;51.606;-0.114;2023-04-03T04:40:42;102374.28;;;15.42;57.67
56504;BME280;48812;51.606;-0.114;2023-04-03T04:43:15;102377.81;;;15.42;57.48
56504;BME280;48812;51.606;-0.114;2023-04-03T04:46:00;102375.16;;;15.41;57.83
56504;BME280;48812;51.606;-0.114;2023-04-03T04:48:35;102377.84;;;15.41;57.96
56504;BME280;48812;51.606;-0.114;2023-04-03T04:51:10;102378.78;;;15.38;57.98
56504;BME280;48812;51.606;-0.114;2023-04-03T04:53:43;102382.34;;;15.37;57.70
56504;BME280;48812;51.606;-0.114;2023-04-03T04:56:18;102380.56;;;15.36;57.85
56504;BME280;48812;51.606;-0.114;2023-04-03T04:58:51;102385.00;;;15.36;57.83
56504;BME280;48812;51.606;-0.114;2023-04-03T05:01:25;102393.03;;;15.34;57.64
56504;BME280;48812;51.606;-0.114;2023-04-03T05:04:04;102386.81;;;15.34;57.35
56504;BME280;48812;51.606;-0.114;2023-04-03T05:06:37;102381.50;;;15.32;57.67
56504;BME280;48812;51.606;-0.114;2023-04-03T05:09:13;102382.41;;;15.31;57.70
56504;BME280;48812;51.606;-0.114;2023-04-03T05:11:48;102384.22;;;15.29;57.69
56504;BME280;48812;51.606;-0.114;2023-04-03T05:14:23;102386.88;;;15.29;58.09
56504;BME280;48812;51.606;-0.114;2023-04-03T05:22:51;102397.59;;;15.24;57.76
56504;BME280;48812;51.606;-0.114;2023-04-03T05:28:29;102400.28;;;15.21;57.29
56504;BME280;48812;51.606;-0.114;2023-04-03T05:31:02;102389.66;;;15.18;57.51
56504;BME280;48812;51.606;-0.114;2023-04-03T05:33:39;102383.44;;;15.18;57.92
56504;BME280;48812;51.606;-0.114;2023-04-03T05:36:18;102384.41;;;15.14;57.59
56504;BME280;48812;51.606;-0.114;2023-04-03T05:38:58;102392.31;;;15.18;57.74
56504;BME280;48812;51.606;-0.114;2023-04-03T05:41:31;102389.72;;;15.15;57.53
56504;BME280;48812;51.606;-0.114;2023-04-03T05:44:04;102392.41;;;15.14;57.63
56504;BME280;48812;51.606;-0.114;2023-04-03T05:49:31;102382.63;;;15.12;57.59
56504;BME280;48812;51.606;-0.114;2023-04-03T05:52:05;102389.75;;;15.10;57.78
56504;BME280;48812;51.606;-0.114;2023-04-03T05:54:38;102394.16;;;15.11;58.07
56504;BME280;48812;51.606;-0.114;2023-04-03T05:57:18;102400.38;;;15.14;57.76
56504;BME280;48812;51.606;-0.114;2023-04-03T05:59:55;102403.91;;;15.16;58.10
56504;BME280;48812;51.606;-0.114;2023-04-03T06:02:28;102403.91;;;15.16;57.45
56504;BME280;48812;51.606;-0.114;2023-04-03T06:05:01;102405.66;;;15.17;57.65
56504;BME280;48812;51.606;-0.114;2023-04-03T06:07:35;102403.91;;;15.17;58.07
56504;BME280;48812;51.606;-0.114;2023-04-03T06:10:08;102409.22;;;15.19;57.80
56504;BME280;48812;51.606;-0.114;2023-04-03T06:12:42;102405.63;;;15.20;57.86
56504;BME280;48812;51.606;-0.114;2023-04-03T06:15:15;102410.03;;;15.22;57.96
56504;BME280;48812;51.606;-0.114;2023-04-03T06:17:49;102409.13;;;15.25;58.12
56504;BME280;48812;51.606;-0.114;2023-04-03T06:20:22;102416.22;;;15.26;58.24
56504;BME280;48812;51.606;-0.114;2023-04-03T06:22:54;102411.75;;;15.28;58.48
56504;BME280;48812;51.606;-0.114;2023-04-03T06:25:27;102407.31;;;15.30;58.33
56504;BME280;48812;51.606;-0.114;2023-04-03T06:27:59;102415.22;;;15.33;58.14
56504;BME280;48812;51.606;-0.114;2023-04-03T06:30:33;102421.44;;;15.35;58.53
56504;BME280;48812;51.606;-0.114;2023-04-03T06:33:05;102416.09;;;15.38;58.63
56504;BME280;48812;51.606;-0.114;2023-04-03T06:35:38;102415.16;;;15.41;58.83
56504;BME280;48812;51.606;-0.114;2023-04-03T06:38:10;102416.00;;;15.44;58.79
56504;BME280;48812;51.606;-0.114;2023-04-03T06:40:43;102420.41;;;15.47;58.97
56504;BME280;48812;51.606;-0.114;2023-04-03T06:43:15;102418.59;;;15.49;58.79
56504;BME280;48812;51.606;-0.114;2023-04-03T06:45:48;102419.47;;;15.51;58.77
56504;BME280;48812;51.606;-0.114;2023-04-03T06:48:20;102415.03;;;15.53;59.09
56504;BME280;48812;51.606;-0.114;2023-04-03T06:50:55;102424.75;;;15.56;58.90
56504;BME280;48812;51.606;-0.114;2023-04-03T06:53:27;102418.53;;;15.57;58.71
56504;BME280;48812;51.606;-0.114;2023-04-03T06:56:00;102427.38;;;15.59;58.70
56504;BME280;48812;51.606;-0.114;2023-04-03T06:58:32;102421.16;;;15.60;59.15
56504;BME280;48812;51.606;-0.114;2023-04-03T07:01:05;102420.22;;;15.61;58.86
56504;BME280;48812;51.606;-0.114;2023-04-03T07:03:38;102421.13;;;15.63;59.09
56504;BME280;48812;51.606;-0.114;2023-04-03T07:06:11;102432.63;;;15.65;58.92
56504;BME280;48812;51.606;-0.114;2023-04-03T07:08:44;102423.72;;;15.66;58.80
56504;BME280;48812;51.606;-0.114;2023-04-03T07:11:19;102423.69;;;15.69;58.72
56504;BME280;48812;51.606;-0.114;2023-04-03T07:13:52;102419.22;;;15.71;58.92
56504;BME280;48812;51.606;-0.114;2023-04-03T07:16:25;102421.81;;;15.74;58.97
56504;BME280;48812;51.606;-0.114;2023-04-03T07:18:58;102421.81;;;15.76;59.06
56504;BME280;48812;51.606;-0.114;2023-04-03T07:21:30;102419.13;;;15.77;59.12
56504;BME280;48812;51.606;-0.114;2023-04-03T07:24:03;102417.34;;;15.79;58.65
56504;BME280;48812;51.606;-0.114;2023-04-03T07:26:37;102426.19;;;15.81;59.18
56504;BME280;48812;51.606;-0.114;2023-04-03T07:29:09;102420.81;;;15.84;59.12
56504;BME280;48812;51.606;-0.114;2023-04-03T07:31:42;102418.13;;;15.86;58.63
56504;BME280;48812;51.606;-0.114;2023-04-03T07:34:16;102420.78;;;15.88;58.83
56504;BME280;48812;51.606;-0.114;2023-04-03T07:36:49;102417.19;;;15.89;58.87
56504;BME280;48812;51.606;-0.114;2023-04-03T07:39:21;102414.53;;;15.89;59.28
56504;BME280;48812;51.606;-0.114;2023-04-03T07:41:54;102420.72;;;15.91;59.16
56504;BME280;48812;51.606;-0.114;2023-04-03T07:44:29;102417.16;;;15.92;58.73
56504;BME280;48812;51.606;-0.114;2023-04-03T07:47:02;102424.25;;;15.93;58.92
56504;BME280;48812;51.606;-0.114;2023-04-03T07:49:35;102420.69;;;15.94;58.90
56504;BME280;48812;51.606;-0.114;2023-04-03T07:52:12;102417.13;;;15.95;58.92
56504;BME280;48812;51.606;-0.114;2023-04-03T07:54:47;102417.97;;;15.95;58.82
56504;BME280;48812;51.606;-0.114;2023-04-03T07:57:20;102413.56;;;15.96;58.54
56504;BME280;48812;51.606;-0.114;2023-04-03T07:59:52;102416.19;;;15.97;58.81
56504;BME280;48812;51.606;-0.114;2023-04-03T08:02:25;102421.53;;;15.97;58.64
56504;BME280;48812;51.606;-0.114;2023-04-03T08:04:59;102416.16;;;15.99;58.59
56504;BME280;48812;51.606;-0.114;2023-04-03T08:07:31;102426.81;;;15.99;58.73
56504;BME280;48812;51.606;-0.114;2023-04-03T08:10:04;102423.28;;;15.98;58.25
56504;BME280;48812;51.606;-0.114;2023-04-03T08:12:38;102427.72;;;15.99;58.30
56504;BME280;48812;51.606;-0.114;2023-04-03T08:15:10;102425.03;;;16.01;58.49
56504;BME280;48812;51.606;-0.114;2023-04-03T08:17:43;102433.91;;;16.01;58.17
56504;BME280;48812;51.606;-0.114;2023-04-03T08:20:16;102428.56;;;16.01;58.29
56504;BME280;48812;51.606;-0.114;2023-04-03T08:22:50;102435.72;;;16.01;57.98
56504;BME280;48812;51.606;-0.114;2023-04-03T08:25:23;102427.69;;;16.01;58.30
56504;BME280;48812;51.606;-0.114;2023-04-03T08:27:55;102440.13;;;16.02;58.06
56504;BME280;48812;51.606;-0.114;2023-04-03T08:30:28;102437.44;;;16.02;58.17
56504;BME280;48812;51.606;-0.114;2023-04-03T08:33:01;102434.78;;;16.02;57.93
56504;BME280;48812;51.606;-0.114;2023-04-03T08:35:40;102438.38;;;16.01;57.88
56504;BME280;48812;51.606;-0.114;2023-04-03T08:38:14;102441.91;;;16.01;57.91
56504;BME280;48812;51.606;-0.114;2023-04-03T08:40:46;102444.59;;;16.01;58.03
56504;BME280;48812;51.606;-0.114;2023-04-03T08:46:39;102436.59;;;16.00;57.85
56504;BME280;48812;51.606;-0.114;2023-04-03T08:49:21;102441.06;;;15.99;57.87
56504;BME280;48812;51.606;-0.114;2023-04-03T08:51:57;102432.13;;;16.00;57.72
56504;BME280;48812;51.606;-0.114;2023-04-03T08:54:34;102433.03;;;16.01;57.94
56504;BME280;48812;51.606;-0.114;2023-04-03T08:57:11;102441.03;;;16.01;58.14
56504;BME280;48812;51.606;-0.114;2023-04-03T08:59:44;102442.78;;;16.02;58.10
56504;BME280;48812;51.606;-0.114;2023-04-03T09:02:31;102439.25;;;16.01;57.84
56504;BME280;48812;51.606;-0.114;2023-04-03T09:05:12;102434.78;;;16.02;57.86
56504;BME280;48812;51.606;-0.114;2023-04-03T09:07:49;102434.78;;;16.02;58.10
56504;BME280;48812;51.606;-0.114;2023-04-03T09:10:28;102429.44;;;16.02;58.01
56504;BME280;48812;51.606;-0.114;2023-04-03T09:13:13;102429.44;;;16.02;58.03
56504;BME280;48812;51.606;-0.114;2023-04-03T09:15:50;102424.13;;;16.02;57.82
56504;BME280;48812;51.606;-0.114;2023-04-03T09:18:28;102425.00;;;16.02;57.70
56504;BME280;48812;51.606;-0.114;2023-04-03T09:21:27;102421.41;;;16.03;57.97
56504;BME280;48812;51.606;-0.114;2023-04-03T09:24:05;102420.56;;;16.03;57.77
56504;BME280;48812;51.606;-0.114;2023-04-03T09:27:03;102410.75;;;16.03;57.95
56504;BME280;48812;51.606;-0.114;2023-04-03T09:29:41;102405.41;;;16.03;57.96
56504;BME280;48812;51.606;-0.114;2023-04-03T09:32:31;102411.66;;;16.04;57.83
56504;BME280;48812;51.606;-0.114;2023-04-03T09:35:17;102417.00;;;16.04;58.12
56504;BME280;48812;51.606;-0.114;2023-04-03T09:40:45;102411.66;;;16.04;57.82
56504;BME280;48812;51.606;-0.114;2023-04-03T09:43:30;102410.75;;;16.03;57.98
56504;BME280;48812;51.606;-0.114;2023-04-03T09:46:35;102412.53;;;16.03;57.45
56504;BME280;48812;51.606;-0.114;2023-04-03T09:49:11;102409.91;;;16.01;57.93
56504;BME280;48812;51.606;-0.114;2023-04-03T09:51:45;102416.09;;;16.02;57.77
56504;BME280;48812;51.606;-0.114;2023-04-03T09:54:39;102412.56;;;16.01;57.74
56504;BME280;48812;51.606;-0.114;2023-04-03T09:57:13;102415.25;;;16.00;57.91
56504;BME280;48812;51.606;-0.114;2023-04-03T09:59:56;102419.69;;;16.01;57.93
56504;BME280;48812;51.606;-0.114;2023-04-03T10:02:38;102416.16;;;15.99;57.72
56504;BME280;48812;51.606;-0.114;2023-04-03T10:05:39;102414.38;;;16.01;57.76
56504;BME280;48812;51.606;-0.114;2023-04-03T10:10:48;102412.59;;;16.00;57.84
56504;BME280;48812;51.606;-0.114;2023-04-03T10:13:49;102404.59;;;16.00;57.81
56504;BME280;48812;51.606;-0.114;2023-04-03T10:16:47;102414.38;;;16.01;57.72
56504;BME280;48812;51.606;-0.114;2023-04-03T10:19:44;102413.47;;;16.00;57.89
56504;BME280;48812;51.606;-0.114;2023-04-03T10:25:26;102410.78;;;16.00;57.70
56504;BME280;48812;51.606;-0.114;2023-04-03T10:28:04;102415.22;;;16.01;57.21
56504;BME280;48812;51.606;-0.114;2023-04-03T10:34:04;102402.75;;;16.02;57.55
56504;BME280;48812;51.606;-0.114;2023-04-03T10:37:02;102409.91;;;16.00;57.43
56504;BME280;48812;51.606;-0.114;2023-04-03T10:42:46;102417.03;;;16.01;57.22
56504;BME280;48812;51.606;-0.114;2023-04-03T10:45:27;102416.13;;;16.00;57.27
56504;BME280;48812;51.606;-0.114;2023-04-03T10:48:16;102407.22;;;16.01;57.58
56504;BME280;48812;51.606;-0.114;2023-04-03T10:51:04;102402.75;;;16.02;57.50
56504;BME280;48812;51.606;-0.114;2023-04-03T10:53:52;102403.69;;;16.01;57.43
56504;BME280;48812;51.606;-0.114;2023-04-03T10:56:32;102395.69;;;16.01;57.54
56504;BME280;48812;51.606;-0.114;2023-04-03T10:59:35;102399.25;;;16.00;57.07
56504;BME280;48812;51.606;-0.114;2023-04-03T11:05:34;102393.03;;;15.99;57.54
56504;BME280;48812;51.606;-0.114;2023-04-03T11:11:11;102396.56;;;16.01;57.36
56504;BME280;48812;51.606;-0.114;2023-04-03T11:14:05;102393.03;;;16.01;57.37
56504;BME280;48812;51.606;-0.114;2023-04-03T11:16:48;102392.09;;;16.02;57.23
56504;BME280;48812;51.606;-0.114;2023-04-03T11:19:41;102392.09;;;16.02;57.10
56504;BME280;48812;51.606;-0.114;2023-04-03T11:22:32;102385.84;;;16.04;57.26
56504;BME280;48812;51.606;-0.114;2023-04-03T11:27:48;102377.81;;;16.06;57.13
56504;BME280;48812;51.606;-0.114;2023-04-03T11:36:25;102378.69;;;16.10;56.87
56504;BME280;48812;51.606;-0.114;2023-04-03T11:39:30;102379.53;;;16.09;57.33
56504;BME280;48812;51.606;-0.114;2023-04-03T11:42:30;102373.34;;;16.08;57.00
56504;BME280;48812;51.606;-0.114;2023-04-03T11:45:24;102368.88;;;16.07;57.09
56504;BME280;48812;51.606;-0.114;2023-04-03T11:48:41;102360.00;;;16.08;56.88
56504;BME280;48812;51.606;-0.114;2023-04-03T11:53:52;102368.00;;;16.08;56.72
56504;BME280;48812;51.606;-0.114;2023-04-03T12:01:56;102359.13;;;16.08;56.79
56504;BME280;48812;51.606;-0.114;2023-04-03T12:04:30;102367.16;;;16.06;56.92
56504;BME280;48812;51.606;-0.114;2023-04-03T12:07:14;102350.28;;;16.06;56.73
56504;BME280;48812;51.606;-0.114;2023-04-03T12:09:54;102356.47;;;16.06;56.67
56504;BME280;48812;51.606;-0.114;2023-04-03T12:12:35;102349.38;;;16.03;56.77
56504;BME280;48812;51.606;-0.114;2023-04-03T12:15:23;102344.94;;;16.04;56.60
56504;BME280;48812;51.606;-0.114;2023-04-03T12:17:56;102338.69;;;16.05;56.90
56504;BME280;48812;51.606;-0.114;2023-04-03T12:23:26;102337.75;;;16.11;57.00
56504;BME280;48812;51.606;-0.114;2023-04-03T12:26:01;102347.50;;;16.13;56.55
56504;BME280;48812;51.606;-0.114;2023-04-03T12:28:39;102335.00;;;16.15;56.68
56504;BME280;48812;51.606;-0.114;2023-04-03T12:31:13;102334.06;;;16.18;56.50
56504;BME280;48812;51.606;-0.114;2023-04-03T12:36:58;102333.13;;;16.22;56.79
56504;BME280;48812;51.606;-0.114;2023-04-03T12:39:43;102327.75;;;16.23;56.81
56504;BME280;48812;51.606;-0.114;2023-04-03T12:45:19;102325.94;;;16.26;56.66
56504;BME280;48812;51.606;-0.114;2023-04-03T12:47:54;102327.69;;;16.27;57.13
56504;BME280;48812;51.606;-0.114;2023-04-03T12:50:31;102312.59;;;16.27;57.00
56504;BME280;48812;51.606;-0.114;2023-04-03T12:53:11;102306.34;;;16.27;57.03
56504;BME280;48812;51.606;-0.114;2023-04-03T12:55:45;102308.06;;;16.31;56.89
56504;BME280;48812;51.606;-0.114;2023-04-03T12:58:28;102306.25;;;16.33;56.86
56504;BME280;48812;51.606;-0.114;2023-04-03T13:01:11;102308.84;;;16.36;57.13
56504;BME280;48812;51.606;-0.114;2023-04-03T13:03:48;102300.81;;;16.37;56.69
56504;BME280;48812;51.606;-0.114;2023-04-03T13:06:28;102299.03;;;16.38;56.54
56504;BME280;48812;51.606;-0.114;2023-04-03T13:09:02;102298.97;;;16.41;56.66
56504;BME280;48812;51.606;-0.114;2023-04-03T13:11:38;102296.28;;;16.43;56.60
56504;BME280;48812;51.606;-0.114;2023-04-03T13:14:21;102291.75;;;16.46;56.56
56504;BME280;48812;51.606;-0.114;2023-04-03T13:17:14;102298.78;;;16.52;56.66
56504;BME280;48812;51.606;-0.114;2023-04-03T13:19:47;102301.47;;;16.52;56.36
56504;BME280;48812;51.606;-0.114;2023-04-03T13:24:54;102295.09;;;16.57;56.22
56504;BME280;48812;51.606;-0.114;2023-04-03T13:27:29;102285.28;;;16.59;56.49
56504;BME280;48812;51.606;-0.114;2023-04-03T13:30:04;102289.66;;;16.64;56.08
56504;BME280;48812;51.606;-0.114;2023-04-03T13:32:37;102283.38;;;16.65;56.29
56504;BME280;48812;51.606;-0.114;2023-04-03T13:35:37;102283.34;;;16.68;55.84
56504;BME280;48812;51.606;-0.114;2023-04-03T13:40:55;102280.53;;;16.74;55.90
56504;BME280;48812;51.606;-0.114;2023-04-03T13:43:31;102276.94;;;16.76;55.84
56504;BME280;48812;51.606;-0.114;2023-04-03T13:48:45;102271.44;;;16.84;56.14
56504;BME280;48812;51.606;-0.114;2023-04-03T13:51:22;102271.34;;;16.89;55.87
56504;BME280;48812;51.606;-0.114;2023-04-03T13:54:00;102266.78;;;16.94;55.36
56504;BME280;48812;51.606;-0.114;2023-04-03T13:56:35;102256.84;;;17.01;55.51
56504;BME280;48812;51.606;-0.114;2023-04-03T14:04:48;102250.72;;;17.38;55.07
56504;BME280;48812;51.606;-0.114;2023-04-03T14:07:18;102256.50;;;17.57;55.13
56504;BME280;48812;51.606;-0.114;2023-04-03T14:09:53;102251.47;;;17.82;54.75
56504;BME280;48812;51.606;-0.114;2023-04-03T14:12:31;102253.16;;;18.19;53.97
56504;BME280;48812;51.606;-0.114;2023-04-03T14:15:16;102249.00;;;18.74;53.52
56504;BME280;48812;51.606;-0.114;2023-04-03T14:17:51;102260.38;;;19.42;52.80
56504;BME280;48812;51.606;-0.114;2023-04-03T14:20:26;102257.03;;;20.17;50.84
56504;BME280;48812;51.606;-0.114;2023-04-03T14:22:58;102250.97;;;20.86;49.99
56504;BME280;48812;51.606;-0.114;2023-04-03T14:25:31;102244.84;;;21.52;48.70
56504;BME280;48812;51.606;-0.114;2023-04-03T14:28:14;102246.03;;;22.09;47.03
56504;BME280;48812;51.606;-0.114;2023-04-03T14:30:49;102246.66;;;22.57;46.16
56504;BME280;48812;51.606;-0.114;2023-04-03T14:33:22;102239.47;;;22.96;45.28
56504;BME280;48812;51.606;-0.114;2023-04-03T14:35:55;102239.06;;;23.24;44.11
56504;BME280;48812;51.606;-0.114;2023-04-03T14:38:30;102236.28;;;23.45;43.56
56504;BME280;48812;51.606;-0.114;2023-04-03T14:41:03;102236.63;;;23.56;42.94
56504;BME280;48812;51.606;-0.114;2023-04-03T14:43:48;102232.94;;;23.57;42.56
56504;BME280;48812;51.606;-0.114;2023-04-03T14:46:37;102228.91;;;23.48;41.92
56504;BME280;48812;51.606;-0.114;2023-04-03T14:49:27;102223.44;;;23.31;42.19
56504;BME280;48812;51.606;-0.114;2023-04-03T14:52:01;102236.09;;;23.11;41.86
56504;BME280;48812;51.606;-0.114;2023-04-03T14:54:33;102230.88;;;22.88;42.31
56504;BME280;48812;51.606;-0.114;2023-04-03T14:57:09;102225.94;;;22.58;42.22
56504;BME280;48812;51.606;-0.114;2023-04-03T14:59:44;102213.84;;;22.27;42.62
56504;BME280;48812;51.606;-0.114;2023-04-03T15:05:01;102210.97;;;21.68;43.50
56504;BME280;48812;51.606;-0.114;2023-04-03T15:07:39;102206.63;;;21.44;43.90
56504;BME280;48812;51.606;-0.114;2023-04-03T15:10:21;102198.50;;;21.22;44.36
56504;BME280;48812;51.606;-0.114;2023-04-03T15:12:55;102202.72;;;21.05;44.54
56504;BME280;48812;51.606;-0.114;2023-04-03T15:15:28;102192.47;;;20.93;44.80
56504;BME280;48812;51.606;-0.114;2023-04-03T15:18:02;102194.59;;;20.85;45.17
56504;BME280;48812;51.606;-0.114;2023-04-03T15:20:34;102186.69;;;20.80;45.28
56504;BME280;48812;51.606;-0.114;2023-04-03T15:23:09;102189.44;;;20.78;45.27
56504;BME280;48812;51.606;-0.114;2023-04-03T15:25:43;102180.41;;;20.81;45.13
56504;BME280;48812;51.606;-0.114;2023-04-03T15:28:33;102181.72;;;20.93;45.12
56504;BME280;48812;51.606;-0.114;2023-04-03T15:31:06;102191.09;;;21.05;45.41
56504;BME280;48812;51.606;-0.114;2023-04-03T15:33:40;102193.06;;;21.23;45.01
56504;BME280;48812;51.606;-0.114;2023-04-03T15:36:12;102189.63;;;21.42;44.88
56504;BME280;48812;51.606;-0.114;2023-04-03T15:39:04;102189.63;;;21.64;44.85
56504;BME280;48812;51.606;-0.114;2023-04-03T15:41:37;102187.84;;;21.85;44.66
56504;BME280;48812;51.606;-0.114;2023-04-03T15:44:09;102196.94;;;22.03;44.30
56504;BME280;48812;51.606;-0.114;2023-04-03T15:46:42;102190.03;;;22.18;43.98
56504;BME280;48812;51.606;-0.114;2023-04-03T15:49:14;102190.13;;;22.35;43.87
56504;BME280;48812;51.606;-0.114;2023-04-03T15:51:47;102189.47;;;22.51;43.46
56504;BME280;48812;51.606;-0.114;2023-04-03T15:54:19;102186.97;;;22.65;43.33
56504;BME280;48812;51.606;-0.114;2023-04-03T15:56:52;102187.34;;;22.76;43.10
56504;BME280;48812;51.606;-0.114;2023-04-03T15:59:25;102197.72;;;22.86;42.57
56504;BME280;48812;51.606;-0.114;2023-04-03T16:01:59;102192.91;;;22.92;42.72
56504;BME280;48812;51.606;-0.114;2023-04-03T16:04:33;102194.53;;;22.96;42.63
56504;BME280;48812;51.606;-0.114;2023-04-03T16:07:06;102192.66;;;22.98;42.29
56504;BME280;48812;51.606;-0.114;2023-04-03T16:09:40;102195.34;;;22.98;42.14
56504;BME280;48812;51.606;-0.114;2023-04-03T16:12:12;102200.78;;;22.97;41.99
56504;BME280;48812;51.606;-0.114;2023-04-03T16:14:45;102193.75;;;22.93;42.30
56504;BME280;48812;51.606;-0.114;2023-04-03T16:17:19;102196.72;;;22.88;42.01
56504;BME280;48812;51.606;-0.114;2023-04-03T16:19:51;102206.88;;;22.81;41.86
56504;BME280;48812;51.606;-0.114;2023-04-03T16:22:25;102203.66;;;22.73;42.41
56504;BME280;48812;51.606;-0.114;2023-04-03T16:24:58;102202.34;;;22.63;42.27
56504;BME280;48812;51.606;-0.114;2023-04-03T16:27:30;102204.66;;;22.52;42.46
56504;BME280;48812;51.606;-0.114;2023-04-03T16:30:03;102198.97;;;22.39;42.23
56504;BME280;48812;51.606;-0.114;2023-04-03T16:32:38;102207.66;;;22.25;42.34
56504;BME280;48812;51.606;-0.114;2023-04-03T16:35:11;102204.66;;;22.10;42.33
56504;BME280;48812;51.606;-0.114;2023-04-03T16:37:43;102202.66;;;21.95;42.33
56504;BME280;48812;51.606;-0.114;2023-04-03T16:40:16;102192.56;;;21.80;42.77
56504;BME280;48812;51.606;-0.114;2023-04-03T16:42:48;102203.09;;;21.64;43.23
56504;BME280;48812;51.606;-0.114;2023-04-03T16:45:21;102195.66;;;21.48;43.09
56504;BME280;48812;51.606;-0.114;2023-04-03T16:47:54;102189.06;;;21.33;43.52
56504;BME280;48812;51.606;-0.114;2023-04-03T16:50:26;102195.88;;;21.20;44.03
56504;BME280;48812;51.606;-0.114;2023-04-03T16:52:59;102188.38;;;21.06;43.76
56504;BME280;48812;51.606;-0.114;2023-04-03T16:55:31;102195.09;;;20.94;43.81